sensor_id;sensor_type;location;lat;lon;timestamp;pressure;altitude;pressure_sealevel;temperature;humidity
7930;BME280;4010;42.698;23.124;2023-05-01T00:01:54;118349.16;;;-140.64;100.00
7930;BME280;4010;42.698;23.124;2023-05-01T00:04:20;118349.16;;;-140.64;100.00
7930;BME280;4010;42.698;23.124;2023-05-01T00:06:47;118349.16;;;-140.64;100.00
7930;BME280;4010;42.698;23.124;2023-05-01T00:09:16;118349.16;;;-140.64;100.00
7930;BME280;4010;42.698;23.124;2023-05-01T00:11:42;118349.16;;;-140.64;100.00
7930;BME280;4010;42.698;23.124;2023-05-01T00:14:10;118349.16;;;-140.64;100.00
7930;BME280;4010;42.698;23.124;2023-05-01T00:16:37;118349.16;;;-140.64;100.00
7930;BME280;4010;42.698;23.124;2023-05-01T00:19:03;118349.16;;;-140.64;100.00
7930;BME280;4010;42.698;23.124;2023-05-01T00:21:30;118349.16;;;-140.64;100.00
7930;BME280;4010;42.698;23.124;2023-05-01T00:23:56;118349.16;;;-140.64;100.00
7930;BME280;4010;42.698;23.124;2023-05-01T00:26:24;118349.16;;;-140.64;100.00
7930;BME280;4010;42.698;23.124;2023-05-01T00:28:54;118349.16;;;-140.64;100.00
7930;BME280;4010;42.698;23.124;2023-05-01T00:31:23;118349.16;;;-140.64;100.00
7930;BME280;4010;42.698;23.124;2023-05-01T00:33:49;118349.16;;;-140.64;100.00
7930;BME280;4010;42.698;23.124;2023-05-01T00:36:16;118349.16;;;-140.64;100.00
7930;BME280;4010;42.698;23.124;2023-05-01T00:38:43;118349.16;;;-140.64;100.00
7930;BME280;4010;42.698;23.124;2023-05-01T00:41:10;118349.16;;;-140.64;100.00
7930;BME280;4010;42.698;23.124;2023-05-01T00:43:38;118349.16;;;-140.64;100.00
7930;BME280;4010;42.698;23.124;2023-05-01T00:46:06;118349.16;;;-140.64;100.00
7930;BME280;4010;42.698;23.124;2023-05-01T00:48:33;118349.16;;;-140.64;100.00
7930;BME280;4010;42.698;23.124;2023-05-01T00:51:02;118349.16;;;-140.64;100.00
7930;BME280;4010;42.698;23.124;2023-05-01T00:53:32;118349.16;;;-140.64;100.00
7930;BME280;4010;42.698;23.124;2023-05-01T00:55:59;118349.16;;;-140.64;100.00
7930;BME280;4010;42.698;23.124;2023-05-01T00:58:26;118349.16;;;-140.64;100.00
7930;BME280;4010;42.698;23.124;2023-05-01T01:00:55;118349.16;;;-140.64;100.00
7930;BME280;4010;42.698;23.124;2023-05-01T01:03:22;118349.16;;;-140.64;100.00
7930;BME280;4010;42.698;23.124;2023-05-01T01:05:52;118349.16;;;-140.64;100.00
7930;BME280;4010;42.698;23.124;2023-05-01T01:08:25;118349.16;;;-140.64;100.00
7930;BME280;4010;42.698;23.124;2023-05-01T01:10:58;118349.16;;;-140.64;100.00
7930;BME280;4010;42.698;23.124;2023-05-01T01:13:28;118349.16;;;-140.64;100.00
7930;BME280;4010;42.698;23.124;2023-05-01T01:16:04;118349.16;;;-140.64;100.00
7930;BME280;4010;42.698;23.124;2023-05-01T01:18:39;118349.16;;;-140.64;100.00
7930;BME280;4010;42.698;23.124;2023-05-01T01:21:08;118349.16;;;-140.64;100.00
7930;BME280;4010;42.698;23.124;2023-05-01T01:24:09;118349.16;;;-140.64;100.00
7930;BME280;4010;42.698;23.124;2023-05-01T01:27:00;118349.16;;;-140.64;100.00
7930;BME280;4010;42.698;23.124;2023-05-01T01:29:50;118349.16;;;-140.64;100.00
7930;BME280;4010;42.698;23.124;2023-05-01T01:32:38;118349.16;;;-140.64;100.00
7930;BME280;4010;42.698;23.124;2023-05-01T01:35:17;118349.16;;;-140.64;100.00
7930;BME280;4010;42.698;23.124;2023-05-01T01:37:49;118349.16;;;-140.64;100.00
7930;BME280;4010;42.698;23.124;2023-05-01T01:40:22;118349.16;;;-140.64;100.00
7930;BME280;4010;42.698;23.124;2023-05-01T01:42:54;118349.16;;;-140.64;100.00
7930;BME280;4010;42.698;23.124;2023-05-01T01:45:29;118349.16;;;-140.64;100.00
7930;BME280;4010;42.698;23.124;2023-05-01T01:47:58;118349.16;;;-140.64;100.00
7930;BME280;4010;42.698;23.124;2023-05-01T01:50:28;118349.16;;;-140.64;100.00
7930;BME280;4010;42.698;23.124;2023-05-01T01:52:59;118349.16;;;-140.64;100.00
7930;BME280;4010;42.698;23.124;2023-05-01T01:55:29;118349.16;;;-140.64;100.00
7930;BME280;4010;42.698;23.124;2023-05-01T01:57:59;118349.16;;;-140.64;100.00
7930;BME280;4010;42.698;23.124;2023-05-01T02:00:27;118349.16;;;-140.64;100.00
7930;BME280;4010;42.698;23.124;2023-05-01T02:02:58;118349.16;;;-140.64;100.00
7930;BME280;4010;42.698;23.124;2023-05-01T02:05:27;118349.16;;;-140.64;100.00
7930;BME280;4010;42.698;23.124;2023-05-01T02:07:56;118349.16;;;-140.64;100.00
7930;BME280;4010;42.698;23.124;2023-05-01T02:10:24;118349.16;;;-140.64;100.00
7930;BME280;4010;42.698;23.124;2023-05-01T02:12:54;118349.16;;;-140.64;100.00
7930;BME280;4010;42.698;23.124;2023-05-01T02:15:23;118349.16;;;-140.64;100.00
7930;BME280;4010;42.698;23.124;2023-05-01T02:17:51;118349.16;;;-140.64;100.00
7930;BME280;4010;42.698;23.124;2023-05-01T02:20:18;118349.16;;;-140.64;100.00
7930;BME280;4010;42.698;23.124;2023-05-01T02:22:49;118349.16;;;-140.64;100.00
7930;BME280;4010;42.698;23.124;2023-05-01T02:25:17;118349.16;;;-140.64;100.00
7930;BME280;4010;42.698;23.124;2023-05-01T02:27:46;118349.16;;;-140.64;100.00
7930;BME280;4010;42.698;23.124;2023-05-01T02:30:13;118349.16;;;-140.64;100.00
7930;BME280;4010;42.698;23.124;2023-05-01T02:32:41;118061.03;;;-140.64;100.00
7930;BME280;4010;42.698;23.124;2023-05-01T02:35:08;118349.16;;;-140.64;100.00
7930;BME280;4010;42.698;23.124;2023-05-01T02:37:35;118349.16;;;-140.64;100.00
7930;BME280;4010;42.698;23.124;2023-05-01T02:40:05;118349.16;;;-140.64;100.00
7930;BME280;4010;42.698;23.124;2023-05-01T02:42:33;117984.91;;;-140.64;100.00
7930;BME280;4010;42.698;23.124;2023-05-01T02:45:02;113791.56;;;-140.64;100.00
7930;BME280;4010;42.698;23.124;2023-05-01T02:47:31;115878.34;;;-140.64;100.00
7930;BME280;4010;42.698;23.124;2023-05-01T02:49:59;117270.94;;;-140.64;100.00
7930;BME280;4010;42.698;23.124;2023-05-01T02:52:27;113754.59;;;-140.64;100.00
7930;BME280;4010;42.698;23.124;2023-05-01T02:54:55;102581.28;;;-140.64;100.00
7930;BME280;4010;42.698;23.124;2023-05-01T02:57:23;100484.00;;;-140.64;100.00
7930;BME280;4010;42.698;23.124;2023-05-01T02:59:50;97340.44;;;-140.64;100.00
7930;BME280;4010;42.698;23.124;2023-05-01T03:02:17;96816.78;;;-140.64;100.00
7930;BME280;4010;42.698;23.124;2023-05-01T03:04:44;94984.63;;;-140.64;100.00
7930;BME280;4010;42.698;23.124;2023-05-01T03:07:11;94722.97;;;-140.64;100.00
7930;BME280;4010;42.698;23.124;2023-05-01T03:09:38;94722.97;;;-140.64;100.00
7930;BME280;4010;42.698;23.124;2023-05-01T03:12:04;95508.00;;;-140.64;100.00
7930;BME280;4010;42.698;23.124;2023-05-01T03:14:33;102581.28;;;-140.64;100.00
7930;BME280;4010;42.698;23.124;2023-05-01T03:16:59;100484.00;;;-140.64;100.00
7930;BME280;4010;42.698;23.124;2023-05-01T03:19:26;98126.06;;;-140.64;100.00
7930;BME280;4010;42.698;23.124;2023-05-01T03:21:53;97602.28;;;-140.64;100.00
7930;BME280;4010;42.698;23.124;2023-05-01T03:24:19;98387.97;;;-140.64;100.00
7930;BME280;4010;42.698;23.124;2023-05-01T03:26:46;97864.16;;;-140.64;100.00
7930;BME280;4010;42.698;23.124;2023-05-01T03:29:13;92630.41;;;-140.64;100.00
7930;BME280;4010;42.698;23.124;2023-05-01T03:31:41;101532.47;;;-140.64;100.00
7930;BME280;4010;42.698;23.124;2023-05-01T03:34:08;104942.22;;;-140.64;100.00
7930;BME280;4010;42.698;23.124;2023-05-01T03:36:35;101270.31;;;-140.64;100.00
7930;BME280;4010;42.698;23.124;2023-05-01T03:39:01;96554.97;;;-140.64;100.00
7930;BME280;4010;42.698;23.124;2023-05-01T03:41:29;93938.09;;;-140.64;100.00
7930;BME280;4010;42.698;23.124;2023-05-01T03:43:55;91061.81;;;-140.64;100.00
7930;BME280;4010;42.698;23.124;2023-05-01T03:46:22;84533.69;;;-140.64;100.00
7930;BME280;4010;42.698;23.124;2023-05-01T03:48:50;80362.19;;;-140.64;100.00
7930;BME280;4010;42.698;23.124;2023-05-01T03:51:17;73334.19;;;-140.64;100.00
7930;BME280;4010;42.698;23.124;2023-05-01T03:53:43;65801.63;;;-140.64;100.00
7930;BME280;4010;42.698;23.124;2023-05-01T03:56:10;54921.84;;;-140.64;100.00
7930;BME280;4010;42.698;23.124;2023-05-01T03:58:37;42530.44;;;-140.64;100.00
7930;BME280;4010;42.698;23.124;2023-05-01T04:01:04;35323.13;;;-140.64;100.00
7930;BME280;4010;42.698;23.124;2023-05-01T04:03:30;25822.91;;;-140.64;100.00
7930;BME280;4010;42.698;23.124;2023-05-01T04:05:58;19419.16;;;-140.64;100.00
7930;BME280;4010;42.698;23.124;2023-05-01T04:08:25;25310.16;;;-140.64;100.00
7930;BME280;4010;42.698;23.124;2023-05-01T04:10:52;118349.16;;;-140.64;100.00
7930;BME280;4010;42.698;23.124;2023-05-01T04:13:18;118349.16;;;-140.64;95.11
7930;BME280;4010;42.698;23.124;2023-05-01T04:15:45;118349.16;;;-140.64;76.63
7930;BME280;4010;42.698;23.124;2023-05-01T04:18:12;118349.16;;;-140.64;69.88
7930;BME280;4010;42.698;23.124;2023-05-01T04:20:38;118349.16;;;-140.64;61.63
7930;BME280;4010;42.698;23.124;2023-05-01T04:23:07;118349.16;;;-140.64;59.11
7930;BME280;4010;42.698;23.124;2023-05-01T04:25:34;118349.16;;;-140.64;55.05
7930;BME280;4010;42.698;23.124;2023-05-01T04:28:00;118349.16;;;-140.64;52.55
7930;BME280;4010;42.698;23.124;2023-05-01T04:30:29;118349.16;;;-140.64;50.32
7930;BME280;4010;42.698;23.124;2023-05-01T04:32:55;118349.16;;;-140.64;48.02
7930;BME280;4010;42.698;23.124;2023-05-01T04:35:22;118349.16;;;-140.64;45.96
7930;BME280;4010;42.698;23.124;2023-05-01T04:37:50;118349.16;;;-140.64;44.70
7930;BME280;4010;42.698;23.124;2023-05-01T04:40:18;118349.16;;;-140.64;43.75
7930;BME280;4010;42.698;23.124;2023-05-01T04:42:44;118349.16;;;-140.64;42.33
7930;BME280;4010;42.698;23.124;2023-05-01T04:45:11;118349.16;;;-140.64;41.89
7930;BME280;4010;42.698;23.124;2023-05-01T04:47:38;118349.16;;;-140.64;40.52
7930;BME280;4010;42.698;23.124;2023-05-01T04:50:05;118349.16;;;-140.64;39.86
7930;BME280;4010;42.698;23.124;2023-05-01T04:52:32;118349.16;;;-140.64;39.29
7930;BME280;4010;42.698;23.124;2023-05-01T04:55:00;118349.16;;;-140.64;39.99
7930;BME280;4010;42.698;23.124;2023-05-01T04:57:28;118349.16;;;-140.64;38.55
7930;BME280;4010;42.698;23.124;2023-05-01T04:59:55;118349.16;;;-140.64;38.19
7930;BME280;4010;42.698;23.124;2023-05-01T05:02:21;118349.16;;;-140.64;37.97
7930;BME280;4010;42.698;23.124;2023-05-01T05:04:48;118349.16;;;-140.64;37.75
7930;BME280;4010;42.698;23.124;2023-05-01T05:07:15;118349.16;;;-140.64;39.77
7930;BME280;4010;42.698;23.124;2023-05-01T05:09:42;118349.16;;;-140.64;41.79
7930;BME280;4010;42.698;23.124;2023-05-01T05:12:09;118349.16;;;-140.64;42.20
7930;BME280;4010;42.698;23.124;2023-05-01T05:14:37;118349.16;;;-140.64;42.18
7930;BME280;4010;42.698;23.124;2023-05-01T05:17:03;118349.16;;;-140.64;40.64
7930;BME280;4010;42.698;23.124;2023-05-01T05:19:30;118349.16;;;-140.64;40.80
7930;BME280;4010;42.698;23.124;2023-05-01T05:21:57;118349.16;;;-140.64;41.85
7930;BME280;4010;42.698;23.124;2023-05-01T05:24:23;118349.16;;;-140.64;40.28
7930;BME280;4010;42.698;23.124;2023-05-01T05:26:50;118349.16;;;-140.64;39.71
7930;BME280;4010;42.698;23.124;2023-05-01T05:29:17;118349.16;;;-140.64;37.59
7930;BME280;4010;42.698;23.124;2023-05-01T05:31:45;118349.16;;;-140.64;38.68
7930;BME280;4010;42.698;23.124;2023-05-01T05:34:12;118349.16;;;-140.64;39.79
7930;BME280;4010;42.698;23.124;2023-05-01T05:36:39;118349.16;;;-140.64;39.79
7930;BME280;4010;42.698;23.124;2023-05-01T05:39:05;118349.16;;;-140.64;40.02
7930;BME280;4010;42.698;23.124;2023-05-01T05:41:32;118349.16;;;-140.64;40.95
7930;BME280;4010;42.698;23.124;2023-05-01T05:43:59;118349.16;;;-140.64;41.98
7930;BME280;4010;42.698;23.124;2023-05-01T05:46:26;118349.16;;;-140.64;42.05
7930;BME280;4010;42.698;23.124;2023-05-01T05:48:54;118349.16;;;-140.64;42.11
7930;BME280;4010;42.698;23.124;2023-05-01T05:51:20;118349.16;;;-140.64;40.81
7930;BME280;4010;42.698;23.124;2023-05-01T05:53:47;118349.16;;;-140.64;39.71
7930;BME280;4010;42.698;23.124;2023-05-01T05:56:14;118349.16;;;-140.64;41.27
7930;BME280;4010;42.698;23.124;2023-05-01T05:58:41;118349.16;;;-140.64;42.19
7930;BME280;4010;42.698;23.124;2023-05-01T06:01:08;118349.16;;;-140.64;41.99
7930;BME280;4010;42.698;23.124;2023-05-01T06:03:35;118349.16;;;-140.64;38.63
7930;BME280;4010;42.698;23.124;2023-05-01T06:06:04;118349.16;;;-140.64;38.91
7930;BME280;4010;42.698;23.124;2023-05-01T06:08:31;118349.16;;;-140.64;39.93
7930;BME280;4010;42.698;23.124;2023-05-01T06:10:59;118349.16;;;-140.64;39.75
7930;BME280;4010;42.698;23.124;2023-05-01T06:13:26;118349.16;;;-140.64;41.34
7930;BME280;4010;42.698;23.124;2023-05-01T06:15:53;118349.16;;;-140.64;41.14
7930;BME280;4010;42.698;23.124;2023-05-01T06:18:20;118349.16;;;-140.64;41.52
7930;BME280;4010;42.698;23.124;2023-05-01T06:20:46;118349.16;;;-140.64;42.54
7930;BME280;4010;42.698;23.124;2023-05-01T06:23:14;118349.16;;;-140.64;42.56
7930;BME280;4010;42.698;23.124;2023-05-01T06:25:41;118349.16;;;-140.64;43.19
7930;BME280;4010;42.698;23.124;2023-05-01T06:28:08;118349.16;;;-140.64;44.62
7930;BME280;4010;42.698;23.124;2023-05-01T06:30:35;118349.16;;;-140.64;46.33
7930;BME280;4010;42.698;23.124;2023-05-01T06:33:02;118349.16;;;-140.64;46.20
7930;BME280;4010;42.698;23.124;2023-05-01T06:35:28;118349.16;;;-140.64;48.21
7930;BME280;4010;42.698;23.124;2023-05-01T06:37:55;118349.16;;;-140.64;48.61
7930;BME280;4010;42.698;23.124;2023-05-01T06:40:23;118349.16;;;-140.64;50.81
7930;BME280;4010;42.698;23.124;2023-05-01T06:42:50;118349.16;;;-140.64;50.68
7930;BME280;4010;42.698;23.124;2023-05-01T06:45:16;118349.16;;;-140.64;52.38
7930;BME280;4010;42.698;23.124;2023-05-01T06:47:43;118349.16;;;-140.64;50.53
7930;BME280;4010;42.698;23.124;2023-05-01T06:50:10;118349.16;;;-140.64;50.13
7930;BME280;4010;42.698;23.124;2023-05-01T06:52:36;118349.16;;;-140.64;51.52
7930;BME280;4010;42.698;23.124;2023-05-01T06:55:03;118349.16;;;-140.64;52.23
7930;BME280;4010;42.698;23.124;2023-05-01T06:57:32;118349.16;;;-140.64;56.44
7930;BME280;4010;42.698;23.124;2023-05-01T06:59:58;118349.16;;;-140.64;58.87
7930;BME280;4010;42.698;23.124;2023-05-01T07:02:25;118349.16;;;-140.64;61.56
7930;BME280;4010;42.698;23.124;2023-05-01T07:04:52;118349.16;;;-140.64;61.38
7930;BME280;4010;42.698;23.124;2023-05-01T07:07:18;118349.16;;;-140.64;62.65
7930;BME280;4010;42.698;23.124;2023-05-01T07:09:45;118349.16;;;-140.64;63.85
7930;BME280;4010;42.698;23.124;2023-05-01T07:12:11;118349.16;;;-140.64;63.98
7930;BME280;4010;42.698;23.124;2023-05-01T07:14:39;118349.16;;;-140.64;70.72
7930;BME280;4010;42.698;23.124;2023-05-01T07:17:06;118349.16;;;-140.64;65.55
7930;BME280;4010;42.698;23.124;2023-05-01T07:19:34;118349.16;;;-140.64;65.10
7930;BME280;4010;42.698;23.124;2023-05-01T07:22:01;118349.16;;;-140.64;65.78
7930;BME280;4010;42.698;23.124;2023-05-01T07:24:29;118349.16;;;-140.64;64.71
7930;BME280;4010;42.698;23.124;2023-05-01T07:26:55;118349.16;;;-140.64;65.33
7930;BME280;4010;42.698;23.124;2023-05-01T07:29:22;118349.16;;;-140.64;67.85
7930;BME280;4010;42.698;23.124;2023-05-01T07:31:50;118349.16;;;-140.64;64.50
7930;BME280;4010;42.698;23.124;2023-05-01T07:34:17;118349.16;;;-140.64;63.66
7930;BME280;4010;42.698;23.124;2023-05-01T07:36:44;118349.16;;;-140.64;63.42
7930;BME280;4010;42.698;23.124;2023-05-01T07:39:10;118349.16;;;-140.64;62.27
7930;BME280;4010;42.698;23.124;2023-05-01T07:41:38;118349.16;;;-140.64;62.30
7930;BME280;4010;42.698;23.124;2023-05-01T07:44:04;118349.16;;;-140.64;61.43
7930;BME280;4010;42.698;23.124;2023-05-01T07:46:31;118349.16;;;-140.64;63.16
7930;BME280;4010;42.698;23.124;2023-05-01T07:49:00;118349.16;;;-140.64;63.19
7930;BME280;4010;42.698;23.124;2023-05-01T07:51:26;118349.16;;;-140.64;65.17
7930;BME280;4010;42.698;23.124;2023-05-01T07:53:53;118349.16;;;-140.64;60.77
7930;BME280;4010;42.698;23.124;2023-05-01T07:56:20;118349.16;;;-140.64;57.15
7930;BME280;4010;42.698;23.124;2023-05-01T07:58:46;118349.16;;;-140.64;57.90
7930;BME280;4010;42.698;23.124;2023-05-01T08:01:13;118349.16;;;-140.64;58.64
7930;BME280;4010;42.698;23.124;2023-05-01T08:03:40;118349.16;;;-140.64;60.46
7930;BME280;4010;42.698;23.124;2023-05-01T08:06:08;118349.16;;;-140.64;57.68
7930;BME280;4010;42.698;23.124;2023-05-01T08:08:35;118349.16;;;-140.64;60.46
7930;BME280;4010;42.698;23.124;2023-05-01T08:11:02;118349.16;;;-140.64;59.26
7930;BME280;4010;42.698;23.124;2023-05-01T08:13:28;118349.16;;;-140.64;56.64
7930;BME280;4010;42.698;23.124;2023-05-01T08:15:59;118349.16;;;-140.64;53.99
7930;BME280;4010;42.698;23.124;2023-05-01T08:18:26;118349.16;;;-140.64;51.40
7930;BME280;4010;42.698;23.124;2023-05-01T08:20:53;118349.16;;;-140.64;53.31
7930;BME280;4010;42.698;23.124;2023-05-01T08:23:21;118349.16;;;-140.64;53.52
7930;BME280;4010;42.698;23.124;2023-05-01T08:25:50;118349.16;;;-140.64;59.88
7930;BME280;4010;42.698;23.124;2023-05-01T08:28:17;118349.16;;;-140.64;51.05
7930;BME280;4010;42.698;23.124;2023-05-01T08:30:45;118349.16;;;-140.64;50.01
7930;BME280;4010;42.698;23.124;2023-05-01T08:33:13;118349.16;;;-140.64;49.83
7930;BME280;4010;42.698;23.124;2023-05-01T08:35:40;118349.16;;;-140.64;47.91
7930;BME280;4010;42.698;23.124;2023-05-01T08:38:07;118349.16;;;-140.64;49.75
7930;BME280;4010;42.698;23.124;2023-05-01T08:40:35;118349.16;;;-140.64;48.92
7930;BME280;4010;42.698;23.124;2023-05-01T08:43:02;118349.16;;;-140.64;50.75
7930;BME280;4010;42.698;23.124;2023-05-01T08:45:32;118349.16;;;-140.64;47.96
7930;BME280;4010;42.698;23.124;2023-05-01T08:48:04;118349.16;;;-140.64;49.74
7930;BME280;4010;42.698;23.124;2023-05-01T08:50:33;118349.16;;;-140.64;50.24
7930;BME280;4010;42.698;23.124;2023-05-01T08:53:01;118349.16;;;-140.64;47.24
7930;BME280;4010;42.698;23.124;2023-05-01T08:55:29;118349.16;;;-140.64;50.54
7930;BME280;4010;42.698;23.124;2023-05-01T08:58:01;118349.16;;;-140.64;46.20
7930;BME280;4010;42.698;23.124;2023-05-01T09:00:30;118349.16;;;-140.64;48.82
7930;BME280;4010;42.698;23.124;2023-05-01T09:03:00;118349.16;;;-140.64;45.29
7930;BME280;4010;42.698;23.124;2023-05-01T09:05:30;118349.16;;;-140.64;46.97
7930;BME280;4010;42.698;23.124;2023-05-01T09:07:58;118349.16;;;-140.64;48.10
7930;BME280;4010;42.698;23.124;2023-05-01T09:10:25;118349.16;;;-140.64;44.39
7930;BME280;4010;42.698;23.124;2023-05-01T09:12:54;118349.16;;;-140.64;43.23
7930;BME280;4010;42.698;23.124;2023-05-01T09:15:24;118349.16;;;-140.64;43.56
7930;BME280;4010;42.698;23.124;2023-05-01T09:17:51;118349.16;;;-140.64;50.44
7930;BME280;4010;42.698;23.124;2023-05-01T09:20:19;118349.16;;;-140.64;44.09
7930;BME280;4010;42.698;23.124;2023-05-01T09:22:45;118349.16;;;-140.64;42.48
7930;BME280;4010;42.698;23.124;2023-05-01T09:25:13;118349.16;;;-140.64;42.54
7930;BME280;4010;42.698;23.124;2023-05-01T09:27:39;118349.16;;;-140.64;46.26
7930;BME280;4010;42.698;23.124;2023-05-01T09:30:07;118349.16;;;-140.64;43.35
7930;BME280;4010;42.698;23.124;2023-05-01T09:32:35;118349.16;;;-140.64;44.10
7930;BME280;4010;42.698;23.124;2023-05-01T09:35:09;118349.16;;;-140.64;45.04
7930;BME280;4010;42.698;23.124;2023-05-01T09:37:36;118349.16;;;-140.64;43.97
7930;BME280;4010;42.698;23.124;2023-05-01T09:40:05;118349.16;;;-140.64;45.40
7930;BME280;4010;42.698;23.124;2023-05-01T09:42:32;118349.16;;;-140.64;44.97
7930;BME280;4010;42.698;23.124;2023-05-01T09:45:00;118349.16;;;-140.64;47.34
7930;BME280;4010;42.698;23.124;2023-05-01T09:47:28;118349.16;;;-140.64;46.25
7930;BME280;4010;42.698;23.124;2023-05-01T09:49:56;118349.16;;;-140.64;46.97
7930;BME280;4010;42.698;23.124;2023-05-01T09:52:25;118349.16;;;-140.64;46.93
7930;BME280;4010;42.698;23.124;2023-05-01T09:55:10;118349.16;;;-140.64;47.84
7930;BME280;4010;42.698;23.124;2023-05-01T09:57:38;118349.16;;;-140.64;47.95
7930;BME280;4010;42.698;23.124;2023-05-01T10:00:05;118349.16;;;-140.64;48.18
7930;BME280;4010;42.698;23.124;2023-05-01T10:02:34;118349.16;;;-140.64;48.68
7930;BME280;4010;42.698;23.124;2023-05-01T10:05:03;118349.16;;;-140.64;44.38
7930;BME280;4010;42.698;23.124;2023-05-01T10:07:31;118349.16;;;-140.64;45.43
7930;BME280;4010;42.698;23.124;2023-05-01T10:09:57;118349.16;;;-140.64;48.18
7930;BME280;4010;42.698;23.124;2023-05-01T10:12:25;118349.16;;;-140.64;42.23
7930;BME280;4010;42.698;23.124;2023-05-01T10:14:52;118349.16;;;-140.64;41.67
7930;BME280;4010;42.698;23.124;2023-05-01T10:17:19;118349.16;;;-140.64;44.12
7930;BME280;4010;42.698;23.124;2023-05-01T10:19:46;118349.16;;;-140.64;43.60
7930;BME280;4010;42.698;23.124;2023-05-01T10:22:15;118349.16;;;-140.64;44.64
7930;BME280;4010;42.698;23.124;2023-05-01T10:24:42;118349.16;;;-140.64;46.75
7930;BME280;4010;42.698;23.124;2023-05-01T10:27:11;118349.16;;;-140.64;46.88
7930;BME280;4010;42.698;23.124;2023-05-01T10:29:40;118349.16;;;-140.64;46.70
7930;BME280;4010;42.698;23.124;2023-05-01T10:32:08;118349.16;;;-140.64;46.60
7930;BME280;4010;42.698;23.124;2023-05-01T10:34:38;118349.16;;;-140.64;48.03
7930;BME280;4010;42.698;23.124;2023-05-01T10:37:10;118349.16;;;-140.64;49.51
7930;BME280;4010;42.698;23.124;2023-05-01T10:39:39;118349.16;;;-140.64;46.59
7930;BME280;4010;42.698;23.124;2023-05-01T10:42:07;118349.16;;;-140.64;46.97
7930;BME280;4010;42.698;23.124;2023-05-01T10:44:39;118349.16;;;-140.64;50.34
7930;BME280;4010;42.698;23.124;2023-05-01T10:47:43;118349.16;;;-140.64;48.21
7930;BME280;4010;42.698;23.124;2023-05-01T10:50:10;118349.16;;;-140.64;46.34
7930;BME280;4010;42.698;23.124;2023-05-01T10:53:15;118349.16;;;-140.64;47.00
7930;BME280;4010;42.698;23.124;2023-05-01T10:55:44;118349.16;;;-140.64;47.10
7930;BME280;4010;42.698;23.124;2023-05-01T10:58:12;118349.16;;;-140.64;44.35
7930;BME280;4010;42.698;23.124;2023-05-01T11:00:40;118349.16;;;-140.64;47.19
7930;BME280;4010;42.698;23.124;2023-05-01T11:03:40;118349.16;;;-140.64;49.48
7930;BME280;4010;42.698;23.124;2023-05-01T11:06:07;118349.16;;;-140.64;44.75
7930;BME280;4010;42.698;23.124;2023-05-01T11:08:35;118349.16;;;-140.64;46.27
7930;BME280;4010;42.698;23.124;2023-05-01T11:14:07;118349.16;;;-140.64;44.78
7930;BME280;4010;42.698;23.124;2023-05-01T11:16:43;118349.16;;;-140.64;45.86
7930;BME280;4010;42.698;23.124;2023-05-01T11:21:58;118349.16;;;-140.64;42.18
7930;BME280;4010;42.698;23.124;2023-05-01T11:24:34;118349.16;;;-140.64;42.51
7930;BME280;4010;42.698;23.124;2023-05-01T11:27:02;118349.16;;;-140.64;42.23
7930;BME280;4010;42.698;23.124;2023-05-01T11:29:31;118349.16;;;-140.64;42.75
7930;BME280;4010;42.698;23.124;2023-05-01T11:31:58;118349.16;;;-140.64;42.88
7930;BME280;4010;42.698;23.124;2023-05-01T11:34:25;118349.16;;;-140.64;42.34
7930;BME280;4010;42.698;23.124;2023-05-01T11:36:52;118349.16;;;-140.64;43.83
7930;BME280;4010;42.698;23.124;2023-05-01T11:39:19;118349.16;;;-140.64;40.96
7930;BME280;4010;42.698;23.124;2023-05-01T11:41:46;118349.16;;;-140.64;42.23
7930;BME280;4010;42.698;23.124;2023-05-01T11:44:14;118349.16;;;-140.64;43.68
7930;BME280;4010;42.698;23.124;2023-05-01T11:46:43;118349.16;;;-140.64;40.96
7930;BME280;4010;42.698;23.124;2023-05-01T11:49:10;118349.16;;;-140.64;40.83
7930;BME280;4010;42.698;23.124;2023-05-01T11:51:37;118349.16;;;-140.64;43.04
7930;BME280;4010;42.698;23.124;2023-05-01T11:54:05;118349.16;;;-140.64;41.76
7930;BME280;4010;42.698;23.124;2023-05-01T11:56:34;118349.16;;;-140.64;41.21
7930;BME280;4010;42.698;23.124;2023-05-01T11:59:09;118349.16;;;-140.64;43.50
7930;BME280;4010;42.698;23.124;2023-05-01T12:01:38;118349.16;;;-140.64;43.95
7930;BME280;4010;42.698;23.124;2023-05-01T12:04:07;118349.16;;;-140.64;44.73
7930;BME280;4010;42.698;23.124;2023-05-01T12:06:37;118349.16;;;-140.64;40.25
7930;BME280;4010;42.698;23.124;2023-05-01T12:09:08;118349.16;;;-140.64;43.41
7930;BME280;4010;42.698;23.124;2023-05-01T12:11:35;118349.16;;;-140.64;42.41
7930;BME280;4010;42.698;23.124;2023-05-01T12:14:03;118349.16;;;-140.64;40.69
7930;BME280;4010;42.698;23.124;2023-05-01T12:16:30;118349.16;;;-140.64;39.60
7930;BME280;4010;42.698;23.124;2023-05-01T12:18:58;118349.16;;;-140.64;38.70
7930;BME280;4010;42.698;23.124;2023-05-01T12:21:26;118349.16;;;-140.64;39.66
7930;BME280;4010;42.698;23.124;2023-05-01T12:23:53;118349.16;;;-140.64;40.24
7930;BME280;4010;42.698;23.124;2023-05-01T12:26:23;118349.16;;;-140.64;40.02
7930;BME280;4010;42.698;23.124;2023-05-01T12:28:59;118349.16;;;-140.64;41.29
7930;BME280;4010;42.698;23.124;2023-05-01T12:31:26;118349.16;;;-140.64;40.64
7930;BME280;4010;42.698;23.124;2023-05-01T12:33:54;118349.16;;;-140.64;42.90
7930;BME280;4010;42.698;23.124;2023-05-01T12:36:22;118349.16;;;-140.64;41.53
7930;BME280;4010;42.698;23.124;2023-05-01T12:38:56;118349.16;;;-140.64;42.96
7930;BME280;4010;42.698;23.124;2023-05-01T12:41:34;118349.16;;;-140.64;41.12
7930;BME280;4010;42.698;23.124;2023-05-01T12:44:01;118349.16;;;-140.64;41.76
7930;BME280;4010;42.698;23.124;2023-05-01T12:46:28;118349.16;;;-140.64;42.05
7930;BME280;4010;42.698;23.124;2023-05-01T12:48:58;118349.16;;;-140.64;42.18
7930;BME280;4010;42.698;23.124;2023-05-01T12:51:25;118349.16;;;-140.64;41.68